Time;durP1;ratioP1;P1;durP2;ratioP2;P2;SDS_P1;SDS_P2;PMS_P1;PMS_P2;Temp;Humidity;BMP_temperature;BMP_pressure;BME280_temperature;BME280_humidity;BME280_pressure;Samples;Min_cycle;Max_cycle;Signal;HPM_P1;HPM_P2
2023/02/15 00:01:43;;;;;;;31.00;15.87;;;2.00;99.90;;;;;;4994851;28;20501;-66
2023/02/15 00:04:12;;;;;;;23.83;12.20;;;2.00;99.90;;;;;;4995446;28;20947;-66
2023/02/15 00:06:37;;;;;;;24.60;12.50;;;2.10;99.90;;;;;;4994726;28;20546;-66
2023/02/15 00:09:03;;;;;;;33.47;12.17;;;2.00;99.90;;;;;;4995275;28;20443;-66
2023/02/15 00:11:49;;;;;;;18.60;10.93;;;2.00;99.90;;;;;;4993755;28;20188;-66
2023/02/15 00:14:24;;;;;;;29.70;13.17;;;1.90;99.90;;;;;;4995294;28;20408;-66
2023/02/15 00:16:52;;;;;;;22.50;11.37;;;1.90;99.90;;;;;;4995246;28;20398;-66
2023/02/15 00:19:19;;;;;;;27.93;12.47;;;1.90;99.90;;;;;;5007212;28;20422;-66
2023/02/15 00:21:45;;;;;;;25.63;14.40;;;1.90;99.90;;;;;;5014599;28;20481;-66
2023/02/15 00:24:13;;;;;;;21.40;12.10;;;1.90;99.90;;;;;;5002399;28;20406;-66
2023/02/15 00:26:40;;;;;;;25.03;12.33;;;1.90;99.90;;;;;;4993627;28;20981;-66
2023/02/15 00:29:07;;;;;;;34.50;12.83;;;1.90;99.90;;;;;;4995220;28;20433;-66
2023/02/15 00:31:34;;;;;;;22.60;12.07;;;1.90;99.90;;;;;;4995539;28;20762;-65
2023/02/15 00:34:05;;;;;;;26.07;13.30;;;1.90;99.90;;;;;;4995418;28;20804;-65
2023/02/15 00:36:31;;;;;;;33.13;13.73;;;1.90;99.90;;;;;;4994915;28;20403;-66
2023/02/15 00:38:57;;;;;;;26.60;12.93;;;1.90;99.90;;;;;;4994849;28;20482;-66
2023/02/15 00:41:22;;;;;;;21.33;11.83;;;1.90;99.90;;;;;;4995214;28;21007;-66
2023/02/15 00:43:48;;;;;;;29.37;14.90;;;1.90;99.90;;;;;;4995082;28;20173;-66
2023/02/15 00:46:13;;;;;;;23.90;11.30;;;1.80;99.90;;;;;;4997959;28;20216;-66
2023/02/15 00:48:39;;;;;;;24.17;13.87;;;1.90;99.90;;;;;;4999576;28;20184;-65
2023/02/15 00:51:04;;;;;;;23.90;11.33;;;1.80;99.90;;;;;;4998870;28;20207;-66
2023/02/15 00:53:30;;;;;;;22.77;12.70;;;1.80;99.90;;;;;;4999095;28;20188;-65
2023/02/15 00:55:56;;;;;;;29.93;11.67;;;1.70;99.90;;;;;;4998970;28;20541;-65
2023/02/15 00:58:22;;;;;;;28.33;14.13;;;1.70;99.90;;;;;;5001710;28;20173;-66
2023/02/15 01:00:48;;;;;;;24.23;12.47;;;1.80;99.90;;;;;;5027143;28;20436;-65
2023/02/15 01:03:15;;;;;;;26.27;12.97;;;1.70;99.90;;;;;;5038117;28;20191;-66
2023/02/15 01:05:41;;;;;;;23.90;12.77;;;1.70;99.90;;;;;;5037512;28;20460;-66
2023/02/15 01:08:06;;;;;;;23.37;11.57;;;1.60;99.90;;;;;;5037442;28;20406;-65
2023/02/15 01:10:34;;;;;;;33.43;12.00;;;1.60;99.90;;;;;;5037826;28;20727;-65
2023/02/15 01:12:59;;;;;;;21.33;13.13;;;1.60;99.90;;;;;;5037404;28;20577;-66
2023/02/15 01:15:25;;;;;;;35.17;14.70;;;1.60;99.90;;;;;;5037439;28;20402;-65
2023/02/15 01:17:52;;;;;;;24.23;11.90;;;1.50;99.90;;;;;;5035660;28;20181;-65
2023/02/15 01:20:22;;;;;;;29.17;15.77;;;1.50;99.90;;;;;;5017732;28;20168;-66
2023/02/15 01:22:49;;;;;;;25.10;13.07;;;1.50;99.90;;;;;;5016883;28;20784;-65
2023/02/15 01:25:16;;;;;;;22.67;12.00;;;1.60;99.90;;;;;;4998223;28;20454;-65
2023/02/15 01:27:42;;;;;;;29.83;12.97;;;1.50;99.90;;;;;;4998477;28;20823;-66
2023/02/15 01:30:08;;;;;;;28.83;12.70;;;1.50;99.90;;;;;;4998426;28;20408;-65
2023/02/15 01:32:34;;;;;;;26.77;14.53;;;1.50;99.90;;;;;;4998438;28;20204;-66
2023/02/15 01:34:59;;;;;;;23.93;13.10;;;1.50;99.90;;;;;;4997532;28;20399;-65
2023/02/15 01:37:25;;;;;;;29.93;14.23;;;1.50;99.90;;;;;;4997926;28;20172;-65
2023/02/15 01:39:50;;;;;;;27.27;13.77;;;1.50;99.90;;;;;;4998069;28;20263;-65
2023/02/15 01:42:22;;;;;;;35.80;14.57;;;1.50;99.90;;;;;;4998166;28;20666;-65
2023/02/15 01:45:03;;;;;;;32.10;14.27;;;1.50;99.90;;;;;;4997219;28;20204;-66
2023/02/15 01:47:37;;;;;;;29.90;13.20;;;1.60;99.90;;;;;;4998057;28;20839;-66
2023/02/15 01:50:16;;;;;;;33.60;15.37;;;1.50;99.90;;;;;;4997375;28;20404;-65
2023/02/15 01:52:57;;;;;;;24.07;12.40;;;1.50;99.90;;;;;;4997481;28;20781;-65
2023/02/15 01:55:27;;;;;;;22.93;12.47;;;1.50;99.90;;;;;;4997367;28;20412;-66
2023/02/15 01:57:53;;;;;;;31.87;13.70;;;1.50;99.90;;;;;;4997041;28;20415;-65
2023/02/15 02:00:19;;;;;;;29.50;12.87;;;1.40;99.90;;;;;;4997318;28;20498;-65
2023/02/15 02:02:49;;;;;;;21.80;12.67;;;1.40;99.90;;;;;;4998432;28;20939;-65
2023/02/15 02:05:15;;;;;;;24.37;12.67;;;1.40;99.90;;;;;;4997328;28;20469;-65
2023/02/15 02:07:44;;;;;;;28.40;12.70;;;1.40;99.90;;;;;;4997306;28;20468;-65
2023/02/15 02:10:14;;;;;;;28.13;11.97;;;1.30;99.90;;;;;;5002811;28;20682;-65
2023/02/15 02:12:42;;;;;;;25.00;12.60;;;1.30;99.90;;;;;;5027791;28;20411;-65
2023/02/15 02:15:08;;;;;;;29.87;13.67;;;1.20;99.90;;;;;;5016573;28;20406;-65
2023/02/15 02:17:49;;;;;;;24.87;11.80;;;1.20;99.90;;;;;;5006682;28;20415;-65
2023/02/15 02:20:31;;;;;;;27.90;11.00;;;1.30;99.90;;;;;;5016552;28;20553;-65
2023/02/15 02:23:15;;;;;;;31.40;13.27;;;1.30;99.90;;;;;;5012513;28;20442;-65
2023/02/15 02:26:07;;;;;;;22.00;12.53;;;1.30;99.90;;;;;;4996841;28;20551;-65
2023/02/15 02:29:10;;;;;;;25.37;13.07;;;1.30;99.90;;;;;;4997045;28;20409;-65
2023/02/15 02:32:12;;;;;;;23.00;12.33;;;1.20;99.90;;;;;;4995148;28;20523;-65
2023/02/15 02:34:50;;;;;;;23.10;11.73;;;1.20;99.90;;;;;;4996275;28;20410;-65
2023/02/15 02:37:42;;;;;;;28.67;13.93;;;1.20;99.90;;;;;;4996850;28;20406;-65
2023/02/15 02:40:18;;;;;;;32.10;13.43;;;1.20;99.90;;;;;;4995723;28;20956;-65
2023/02/15 02:42:59;;;;;;;23.93;13.70;;;1.20;99.90;;;;;;4994244;28;20489;-65
2023/02/15 02:45:30;;;;;;;27.00;11.53;;;1.10;99.90;;;;;;4995875;28;20454;-65
2023/02/15 02:48:02;;;;;;;22.97;12.47;;;1.20;99.90;;;;;;5013382;28;20411;-65
2023/02/15 02:50:30;;;;;;;24.10;11.53;;;1.20;99.90;;;;;;5015470;28;20820;-65
2023/02/15 02:52:58;;;;;;;25.70;13.07;;;1.20;99.90;;;;;;5015723;28;20410;-65
2023/02/15 02:55:38;;;;;;;25.00;12.53;;;1.20;99.90;;;;;;5015091;28;20926;-65
2023/02/15 02:58:12;;;;;;;19.07;11.00;;;1.20;99.90;;;;;;5015657;28;20418;-65
2023/02/15 03:00:50;;;;;;;33.23;13.30;;;1.10;99.90;;;;;;5015531;28;20451;-65
2023/02/15 03:03:24;;;;;;;25.23;12.30;;;1.10;99.90;;;;;;5015679;28;20480;-65
2023/02/15 03:05:55;;;;;;;34.13;14.57;;;1.10;99.90;;;;;;5014847;28;20878;-65
2023/02/15 03:08:27;;;;;;;31.73;13.80;;;1.20;99.90;;;;;;5014293;28;20423;-65
2023/02/15 03:10:55;;;;;;;28.00;13.33;;;1.10;99.90;;;;;;5015213;28;20478;-65
2023/02/15 03:13:22;;;;;;;31.27;12.17;;;1.20;99.90;;;;;;5015118;28;20409;-65
2023/02/15 03:18:41;;;;;;;21.40;11.43;;;1.20;99.90;;;;;;5017174;28;20800;-65
2023/02/15 03:21:08;;;;;;;28.70;15.03;;;1.10;99.90;;;;;;5020768;28;20518;-65
2023/02/15 03:23:36;;;;;;;28.03;14.53;;;1.10;99.90;;;;;;5005251;28;20418;-65
2023/02/15 03:26:06;;;;;;;23.27;11.80;;;1.10;99.90;;;;;;4992993;28;20819;-65
2023/02/15 03:28:38;;;;;;;22.20;12.53;;;1.10;99.90;;;;;;4993149;28;20469;-65
2023/02/15 03:31:07;;;;;;;26.27;11.63;;;1.10;99.90;;;;;;4993145;28;20589;-64
2023/02/15 03:33:35;;;;;;;25.50;11.67;;;1.10;99.90;;;;;;4993178;28;20431;-65
2023/02/15 03:36:25;;;;;;;26.20;12.47;;;1.00;99.90;;;;;;4992633;28;20506;-64
2023/02/15 03:39:07;;;;;;;29.23;14.10;;;1.10;99.90;;;;;;4993071;28;20412;-65
2023/02/15 03:41:46;;;;;;;26.83;10.83;;;1.00;99.90;;;;;;4992881;28;20426;-64
2023/02/15 03:44:33;;;;;;;25.93;11.60;;;1.10;99.90;;;;;;4992863;28;20408;-64
2023/02/15 03:47:08;;;;;;;29.03;12.47;;;1.10;99.90;;;;;;4992937;28;21105;-65
2023/02/15 03:49:42;;;;;;;22.27;12.83;;;1.00;99.90;;;;;;4993656;28;20395;-65
2023/02/15 03:52:10;;;;;;;21.00;12.13;;;0.90;99.90;;;;;;4994598;28;20431;-65
2023/02/15 03:54:43;;;;;;;26.30;13.50;;;0.90;99.90;;;;;;4994845;28;20414;-65
2023/02/15 04:02:58;;;;;;;23.57;11.60;;;0.80;99.90;;;;;;4992917;28;20430;-65
2023/02/15 04:05:23;;;;;;;34.80;14.80;;;0.80;99.90;;;;;;4992416;28;20451;-64
2023/02/15 04:07:49;;;;;;;22.07;12.10;;;0.80;99.90;;;;;;4992591;28;20410;-65
2023/02/15 04:12:59;;;;;;;28.33;12.87;;;0.80;99.90;;;;;;4992643;28;20178;-65
2023/02/15 04:18:08;;;;;;;26.43;12.93;;;0.80;99.90;;;;;;4996162;28;20196;-65
2023/02/15 04:26:05;;;;;;;22.17;11.00;;;0.90;99.90;;;;;;5027834;28;20527;-65
2023/02/15 04:28:31;;;;;;;36.90;13.27;;;0.90;99.90;;;;;;5016146;28;20424;-65
2023/02/15 04:30:57;;;;;;;24.87;11.90;;;0.90;99.90;;;;;;5015830;28;20427;-65
2023/02/15 04:33:22;;;;;;;25.77;13.13;;;0.90;99.90;;;;;;5016096;28;20230;-65
2023/02/15 04:35:48;;;;;;;20.83;12.87;;;0.90;99.90;;;;;;5015682;28;20543;-64
2023/02/15 04:38:13;;;;;;;28.93;13.43;;;0.80;99.90;;;;;;5016008;28;20534;-65
2023/02/15 04:40:39;;;;;;;25.70;12.77;;;0.90;99.90;;;;;;5015647;28;20192;-65
2023/02/15 04:43:04;;;;;;;28.27;14.00;;;0.90;99.90;;;;;;5015796;28;20173;-65
2023/02/15 04:45:30;;;;;;;25.83;11.33;;;0.80;99.90;;;;;;5009519;28;20296;-65
2023/02/15 04:47:55;;;;;;;20.00;11.87;;;0.80;99.90;;;;;;4996068;28;20161;-64
2023/02/15 04:50:21;;;;;;;24.20;10.47;;;0.80;99.90;;;;;;4996016;28;20180;-67
2023/02/15 04:52:46;;;;;;;32.03;12.40;;;0.90;99.90;;;;;;4995847;28;20799;-64
2023/02/15 04:55:12;;;;;;;30.40;12.50;;;0.90;99.90;;;;;;4995715;28;20200;-64
2023/02/15 04:57:38;;;;;;;16.87;10.50;;;0.90;99.90;;;;;;4996155;28;20621;-65
2023/02/15 05:00:04;;;;;;;24.20;12.17;;;0.80;99.90;;;;;;4997618;28;20169;-65
2023/02/15 05:02:29;;;;;;;23.43;11.40;;;0.90;99.90;;;;;;4997078;28;20185;-66
2023/02/15 05:04:55;;;;;;;26.23;11.40;;;0.80;99.90;;;;;;4997024;28;20841;-66
2023/02/15 05:07:20;;;;;;;23.30;11.03;;;0.80;99.90;;;;;;4996036;28;20242;-64
2023/02/15 05:09:46;;;;;;;27.17;12.20;;;0.90;99.90;;;;;;4995556;28;20673;-65
2023/02/15 05:12:11;;;;;;;25.80;12.77;;;0.80;99.90;;;;;;5028450;28;20192;-65
2023/02/15 05:14:37;;;;;;;27.17;11.77;;;0.90;99.90;;;;;;4996962;28;20188;-65
2023/02/15 05:17:05;;;;;;;33.57;13.67;;;0.80;99.90;;;;;;4997237;28;20554;-65
2023/02/15 05:19:30;;;;;;;24.80;11.60;;;0.80;99.90;;;;;;4996270;28;20169;-64
2023/02/15 05:21:56;;;;;;;24.57;12.43;;;0.70;99.90;;;;;;4995779;28;20436;-65
2023/02/15 05:29:49;;;;;;;25.20;11.77;;;0.70;99.90;;;;;;5015062;28;20494;-64
2023/02/15 05:32:15;;;;;;;16.70;9.30;;;0.60;99.90;;;;;;5014216;28;20513;-64
2023/02/15 05:34:41;;;;;;;25.73;11.20;;;0.60;99.90;;;;;;5014553;28;20251;-65
2023/02/15 05:37:07;;;;;;;27.20;11.30;;;0.70;99.90;;;;;;5026532;28;20539;-65
2023/02/15 05:39:33;;;;;;;22.60;10.27;;;0.70;99.90;;;;;;5014979;28;20668;-65
2023/02/15 05:42:00;;;;;;;29.80;11.97;;;0.70;99.90;;;;;;5014522;28;20434;-65
2023/02/15 05:44:25;;;;;;;22.10;12.00;;;0.70;99.90;;;;;;5013293;28;20171;-65
2023/02/15 05:46:51;;;;;;;25.73;12.27;;;0.70;99.90;;;;;;4996639;28;20411;-65
2023/02/15 05:49:16;;;;;;;22.07;11.00;;;0.60;99.90;;;;;;4996630;28;20183;-65
2023/02/15 05:51:42;;;;;;;27.00;12.37;;;0.60;99.90;;;;;;4994914;28;20188;-65
2023/02/15 05:54:07;;;;;;;26.03;10.00;;;0.60;99.90;;;;;;4994951;28;20173;-64
2023/02/15 05:56:33;;;;;;;22.00;12.00;;;0.60;99.90;;;;;;4995424;28;20179;-65
2023/02/15 05:58:58;;;;;;;23.73;11.57;;;0.60;99.90;;;;;;4996306;28;20516;-65
2023/02/15 06:01:24;;;;;;;23.23;11.00;;;0.50;99.90;;;;;;5006116;28;20558;-65
2023/02/15 06:03:50;;;;;;;24.47;11.27;;;0.60;99.90;;;;;;5016003;28;20604;-64
2023/02/15 06:06:16;;;;;;;26.17;11.30;;;0.60;99.90;;;;;;5014377;28;20203;-64
2023/02/15 06:08:41;;;;;;;24.17;11.73;;;0.60;99.90;;;;;;5013587;28;20190;-65
2023/02/15 06:11:07;;;;;;;21.63;10.30;;;0.60;99.90;;;;;;5012839;28;20788;-64
2023/02/15 06:13:33;;;;;;;23.77;10.43;;;0.60;99.90;;;;;;5014084;28;20198;-64
2023/02/15 06:15:59;;;;;;;24.07;10.93;;;0.60;99.90;;;;;;5012602;28;20455;-64
2023/02/15 06:18:24;;;;;;;30.43;13.40;;;0.60;99.90;;;;;;5001036;28;20415;-65
2023/02/15 06:20:50;;;;;;;15.40;9.23;;;0.60;99.90;;;;;;4994331;28;20525;-65
2023/02/15 06:23:16;;;;;;;23.00;10.70;;;0.50;99.90;;;;;;4995210;28;20589;-65
2023/02/15 06:25:42;;;;;;;21.77;12.00;;;0.60;99.90;;;;;;4994323;28;20196;-65
2023/02/15 06:28:08;;;;;;;22.40;10.37;;;0.60;99.90;;;;;;4994347;28;20410;-65
2023/02/15 06:30:33;;;;;;;22.90;10.10;;;0.60;99.90;;;;;;4994290;28;20423;-64
2023/02/15 06:32:59;;;;;;;33.37;13.67;;;0.50;99.90;;;;;;4994305;28;20175;-64
2023/02/15 06:35:24;;;;;;;23.87;11.70;;;0.60;99.90;;;;;;4993860;28;20177;-64
2023/02/15 06:37:50;;;;;;;24.00;11.80;;;0.60;99.90;;;;;;4995212;28;20196;-65
2023/02/15 06:40:16;;;;;;;20.87;10.60;;;0.60;99.90;;;;;;4995769;28;20196;-65
2023/02/15 06:42:42;;;;;;;31.17;13.17;;;0.60;99.90;;;;;;4995273;28;20183;-65
2023/02/15 06:45:08;;;;;;;18.83;10.23;;;0.60;99.90;;;;;;5005860;28;20214;-64
2023/02/15 06:47:34;;;;;;;23.40;12.40;;;0.70;99.90;;;;;;5015700;28;20409;-64
2023/02/15 06:50:00;;;;;;;22.13;10.70;;;0.70;99.90;;;;;;5022143;28;20411;-64
2023/02/15 06:52:26;;;;;;;25.60;12.20;;;0.70;99.90;;;;;;5013234;28;20279;-64
2023/02/15 06:54:51;;;;;;;23.17;11.50;;;0.80;99.90;;;;;;5013186;28;20610;-65
2023/02/15 06:57:17;;;;;;;27.90;11.80;;;0.80;99.90;;;;;;5013267;28;20777;-65
2023/02/15 06:59:42;;;;;;;26.30;12.87;;;0.80;99.90;;;;;;5013421;28;20540;-64
2023/02/15 07:02:12;;;;;;;24.13;9.37;;;0.80;99.90;;;;;;5013244;28;20671;-64
2023/02/15 07:04:37;;;;;;;16.77;8.17;;;0.90;99.90;;;;;;5028347;28;20651;-65
2023/02/15 07:07:03;;;;;;;24.17;10.80;;;0.90;99.90;;;;;;5014587;28;20410;-65
2023/02/15 07:09:29;;;;;;;25.50;10.60;;;0.80;99.90;;;;;;5014090;28;20188;-64
2023/02/15 07:14:40;;;;;;;17.27;10.07;;;0.90;99.90;;;;;;5003831;28;20269;-65
2023/02/15 07:17:06;;;;;;;15.33;9.23;;;1.10;99.90;;;;;;4993373;28;20926;-64
2023/02/15 07:19:31;;;;;;;24.03;11.40;;;1.10;99.90;;;;;;4993346;28;20410;-64
2023/02/15 07:21:57;;;;;;;22.13;11.03;;;1.10;99.90;;;;;;4993305;28;20471;-64
2023/02/15 07:24:23;;;;;;;20.73;10.40;;;1.20;99.90;;;;;;5006913;28;20664;-64
2023/02/15 07:26:48;;;;;;;17.57;9.83;;;1.20;99.90;;;;;;5012787;28;20172;-65
2023/02/15 07:29:15;;;;;;;18.73;10.10;;;1.20;99.90;;;;;;5012847;28;20592;-65
2023/02/15 07:31:42;;;;;;;19.37;11.13;;;1.40;99.90;;;;;;5012651;28;20214;-65
2023/02/15 07:34:08;;;;;;;22.60;10.97;;;1.50;99.90;;;;;;5012753;28;20403;-64
2023/02/15 07:36:33;;;;;;;22.40;11.97;;;1.50;99.90;;;;;;5012448;28;20942;-65
2023/02/15 07:38:59;;;;;;;22.67;13.00;;;1.60;99.90;;;;;;5012460;28;20172;-65
2023/02/15 07:41:24;;;;;;;26.67;11.80;;;1.70;99.90;;;;;;5006353;28;20219;-65
2023/02/15 07:43:50;;;;;;;20.23;10.30;;;1.70;99.90;;;;;;4994509;28;20231;-66
2023/02/15 07:46:16;;;;;;;21.93;10.90;;;1.80;99.90;;;;;;4994391;28;20196;-66
2023/02/15 07:48:43;;;;;;;23.83;10.53;;;1.90;99.90;;;;;;4993528;28;20169;-65
2023/02/15 07:51:10;;;;;;;23.53;11.77;;;2.00;99.90;;;;;;4992777;28;20515;-65
2023/02/15 07:53:36;;;;;;;23.60;12.00;;;2.00;99.90;;;;;;4992545;28;20406;-65
2023/02/15 07:56:05;;;;;;;23.27;12.70;;;2.10;99.90;;;;;;4992463;28;20441;-65
2023/02/15 08:01:16;;;;;;;27.47;10.87;;;2.30;99.90;;;;;;5011066;28;20427;-65
2023/02/15 08:03:41;;;;;;;24.67;12.50;;;2.50;99.90;;;;;;5031965;28;20772;-65
2023/02/15 08:06:07;;;;;;;19.93;11.20;;;2.60;99.90;;;;;;5031697;28;20450;-66
2023/02/15 08:08:35;;;;;;;24.43;10.50;;;2.70;99.90;;;;;;5031749;28;20180;-66
2023/02/15 08:14:02;;;;;;;21.20;11.27;;;2.90;99.90;;;;;;5011106;28;20545;-65
2023/02/15 08:16:35;;;;;;;21.57;11.47;;;3.20;99.90;;;;;;5012094;28;20776;-66
2023/02/15 08:19:27;;;;;;;32.80;17.03;;;4.30;99.90;;;;;;5011499;28;20500;-66
2023/02/15 08:22:02;;;;;;;34.13;17.00;;;5.60;99.90;;;;;;5010917;28;20504;-66
2023/02/15 08:24:31;;;;;;;32.53;15.70;;;6.70;99.90;;;;;;4996878;28;20408;-66
2023/02/15 08:26:58;;;;;;;34.63;16.90;;;7.80;99.90;;;;;;4992420;28;20400;-66
2023/02/15 08:29:26;;;;;;;23.93;15.40;;;8.80;99.90;;;;;;4992539;28;20404;-66
2023/02/15 08:32:01;;;;;;;25.03;14.90;;;9.80;99.90;;;;;;4992271;28;20428;-66
2023/02/15 08:34:29;;;;;;;16.50;10.40;;;10.80;99.90;;;;;;4992229;28;20399;-66
2023/02/15 08:36:55;;;;;;;17.73;10.37;;;11.80;99.90;;;;;;4992312;28;20427;-67
2023/02/15 08:39:21;;;;;;;15.87;9.50;;;12.80;99.90;;;;;;4992388;28;20393;-67
2023/02/15 08:41:47;;;;;;;13.03;8.90;;;14.00;99.90;;;;;;5001726;28;20196;-67
2023/02/15 08:44:14;;;;;;;12.70;9.70;;;14.60;99.90;;;;;;5010490;28;20781;-66
2023/02/15 08:46:42;;;;;;;19.50;10.00;;;14.60;91.60;;;;;;5011733;28;20478;-66
2023/02/15 08:49:08;;;;;;;12.20;9.30;;;14.80;90.70;;;;;;5011991;28;20881;-65
2023/02/15 08:51:36;;;;;;;11.93;9.37;;;15.80;89.00;;;;;;5011813;28;20423;-65
2023/02/15 08:54:04;;;;;;;13.00;9.40;;;16.20;77.40;;;;;;5011863;28;20431;-65
2023/02/15 08:56:34;;;;;;;15.03;9.93;;;16.50;70.80;;;;;;5011466;28;20510;-65
2023/02/15 08:59:00;;;;;;;12.67;8.33;;;17.10;68.50;;;;;;5011685;28;20407;-65
2023/02/15 09:01:31;;;;;;;12.20;8.43;;;17.90;64.40;;;;;;5011817;28;20480;-65
2023/02/15 09:03:59;;;;;;;11.83;8.43;;;18.50;60.20;;;;;;5011686;28;20705;-66
2023/02/15 09:06:25;;;;;;;13.37;8.50;;;19.10;58.20;;;;;;5012566;28;20490;-66
2023/02/15 09:08:51;;;;;;;14.43;9.17;;;19.50;55.40;;;;;;5015171;28;20426;-66
2023/02/15 09:11:25;;;;;;;13.67;8.83;;;19.80;54.60;;;;;;5020553;28;20445;-66
2023/02/15 09:14:13;;;;;;;11.20;9.00;;;20.30;53.50;;;;;;5016866;28;20921;-66
2023/02/15 09:16:40;;;;;;;11.10;8.30;;;21.50;52.80;;;;;;5015231;28;20482;-66
2023/02/15 09:19:06;;;;;;;12.47;9.30;;;22.10;50.60;;;;;;5015190;28;20403;-66
2023/02/15 09:21:36;;;;;;;12.47;9.30;;;22.60;49.40;;;;;;5015194;28;20564;-66
2023/02/15 09:24:06;;;;;;;16.13;9.50;;;22.60;47.20;;;;;;5003774;28;20416;-65
2023/02/15 09:26:34;;;;;;;10.40;8.93;;;21.80;45.50;;;;;;4995231;28;20483;-66
2023/02/15 09:29:01;;;;;;;13.43;8.83;;;21.70;45.90;;;;;;4995405;28;20858;-66
2023/02/15 09:31:29;;;;;;;12.27;9.30;;;21.90;46.10;;;;;;4995425;28;20420;-66
2023/02/15 09:33:55;;;;;;;12.07;9.13;;;22.40;46.10;;;;;;4995423;28;20392;-66
2023/02/15 09:36:24;;;;;;;14.13;8.83;;;22.50;44.90;;;;;;4994992;28;20412;-67
2023/02/15 09:39:07;;;;;;;9.03;8.00;;;22.20;44.30;;;;;;4995230;28;20408;-66
2023/02/15 09:42:00;;;;;;;12.07;9.17;;;22.50;44.90;;;;;;5012440;28;20780;-66
2023/02/15 09:44:56;;;;;;;10.17;8.70;;;22.20;43.70;;;;;;5014373;28;20410;-66
2023/02/15 09:48:08;;;;;;;19.73;9.17;;;21.90;44.40;;;;;;5014798;28;20399;-66
2023/02/15 09:50:48;;;;;;;10.20;8.10;;;21.70;44.70;;;;;;5014652;28;20391;-66
2023/02/15 09:53:28;;;;;;;13.50;10.73;;;21.60;44.80;;;;;;5014523;28;20403;-66
2023/02/15 09:55:56;;;;;;;13.30;8.60;;;21.10;44.30;;;;;;5014346;28;20407;-66
2023/02/15 09:58:53;;;;;;;12.87;8.10;;;20.20;44.60;;;;;;5014492;28;20411;-66
2023/02/15 10:01:47;;;;;;;12.43;9.07;;;20.30;45.60;;;;;;5014301;28;20419;-66
2023/02/15 10:04:37;;;;;;;11.37;9.10;;;20.50;46.30;;;;;;5014225;28;20399;-66
2023/02/15 10:07:36;;;;;;;8.80;7.77;;;21.10;46.60;;;;;;5014259;28;20419;-67
2023/02/15 10:10:12;;;;;;;12.80;8.90;;;21.30;45.90;;;;;;5012490;28;20415;-67
2023/02/15 10:12:58;;;;;;;14.23;9.97;;;21.30;45.50;;;;;;4994380;28;20772;-66
2023/02/15 10:15:31;;;;;;;14.83;10.40;;;21.40;45.10;;;;;;4994449;28;20910;-67
2023/02/15 10:18:16;;;;;;;11.20;9.27;;;21.40;45.70;;;;;;5002202;28;20796;-66
2023/02/15 10:21:05;;;;;;;10.60;8.53;;;21.70;46.30;;;;;;5014043;28;20438;-66
2023/02/15 10:23:44;;;;;;;11.70;8.30;;;22.10;45.60;;;;;;5022002;28;20550;-67
2023/02/15 10:26:25;;;;;;;12.50;8.80;;;22.80;45.10;;;;;;5013392;28;20537;-67
2023/02/15 10:29:17;;;;;;;11.53;8.40;;;23.20;44.60;;;;;;5013939;28;20786;-67
2023/02/15 10:31:46;;;;;;;11.53;9.20;;;23.40;43.50;;;;;;5012719;28;20463;-67
2023/02/15 10:34:22;;;;;;;12.10;8.20;;;24.00;43.50;;;;;;5013565;28;20465;-67
2023/02/15 10:37:18;;;;;;;11.83;8.77;;;24.60;42.90;;;;;;5013646;28;20403;-67
2023/02/15 10:40:01;;;;;;;11.10;8.60;;;24.40;42.30;;;;;;5005941;28;20412;-67
2023/02/15 10:42:50;;;;;;;14.00;9.33;;;24.50;42.60;;;;;;4994134;28;20963;-67
2023/02/15 10:45:22;;;;;;;11.90;8.93;;;24.70;42.20;;;;;;4993606;28;20455;-67
2023/02/15 10:48:01;;;;;;;10.17;7.83;;;25.40;41.90;;;;;;4993955;28;20407;-67
2023/02/15 10:50:46;;;;;;;8.67;7.47;;;25.50;41.30;;;;;;4993773;28;20777;-67
2023/02/15 10:53:30;;;;;;;10.17;7.90;;;25.40;41.00;;;;;;4992640;28;20913;-67
2023/02/15 10:56:20;;;;;;;9.10;7.80;;;25.20;41.10;;;;;;4992396;28;20980;-67
2023/02/15 10:59:23;;;;;;;10.80;8.57;;;24.90;40.90;;;;;;4993841;28;20919;-67
2023/02/15 11:02:21;;;;;;;11.60;8.77;;;24.40;41.50;;;;;;4993558;28;20432;-67
2023/02/15 11:05:17;;;;;;;9.80;8.17;;;25.00;41.80;;;;;;4992483;28;20471;-65
2023/02/15 11:07:47;;;;;;;11.00;8.17;;;26.20;40.80;;;;;;4992480;28;20448;-66
2023/02/15 11:10:29;;;;;;;11.90;8.23;;;26.50;39.50;;;;;;5004777;28;20951;-66
2023/02/15 11:12:57;;;;;;;12.83;8.00;;;27.10;40.30;;;;;;5013067;28;20833;-66
2023/02/15 11:15:44;;;;;;;14.20;8.90;;;28.10;39.20;;;;;;5012762;28;20443;-66
2023/02/15 11:18:21;;;;;;;9.97;8.63;;;28.60;37.90;;;;;;5012995;28;20495;-66
2023/02/15 11:21:01;;;;;;;11.30;8.30;;;28.50;36.70;;;;;;5012843;28;20469;-66
2023/02/15 11:23:28;;;;;;;12.17;8.17;;;28.80;36.40;;;;;;5006278;28;20412;-66
2023/02/15 11:26:09;;;;;;;9.77;7.57;;;28.80;36.00;;;;;;4992867;28;20458;-66
2023/02/15 11:28:44;;;;;;;10.03;9.03;;;29.20;35.90;;;;;;4992637;28;20432;-66
2023/02/15 11:31:17;;;;;;;9.57;8.40;;;29.60;36.50;;;;;;4993061;28;20781;-66
2023/02/15 11:33:53;;;;;;;13.20;7.90;;;29.70;35.80;;;;;;5006533;28;20414;-66
2023/02/15 11:36:26;;;;;;;14.60;10.10;;;29.80;35.10;;;;;;5018423;28;20930;-66
2023/02/15 11:38:59;;;;;;;9.20;8.20;;;29.50;34.80;;;;;;5009968;28;20486;-66
2023/02/15 11:41:29;;;;;;;9.70;8.40;;;29.90;34.70;;;;;;4992934;28;20431;-66
2023/02/15 11:44:15;;;;;;;11.03;8.50;;;30.30;34.50;;;;;;4992879;28;20470;-66
2023/02/15 11:46:41;;;;;;;10.10;8.57;;;30.40;34.00;;;;;;4992630;28;20467;-66
2023/02/15 11:49:31;;;;;;;10.97;8.87;;;30.70;33.70;;;;;;4992767;28;20800;-66
2023/02/15 11:52:00;;;;;;;10.40;9.23;;;30.70;33.70;;;;;;4992790;28;20207;-66
2023/02/15 11:54:39;;;;;;;9.97;9.00;;;30.90;33.40;;;;;;4992354;28;20413;-66
2023/02/15 11:57:28;;;;;;;9.73;8.53;;;31.10;33.90;;;;;;4991609;28;20410;-66
2023/02/15 12:00:04;;;;;;;10.50;8.23;;;31.00;33.40;;;;;;4992637;28;20494;-66
2023/02/15 12:02:33;;;;;;;9.60;8.60;;;31.10;33.30;;;;;;4992550;28;20442;-66
2023/02/15 12:05:08;;;;;;;8.63;7.83;;;31.20;33.40;;;;;;4992222;28;20455;-67
2023/02/15 12:07:36;;;;;;;9.63;8.70;;;31.40;33.20;;;;;;4994003;28;20408;-66
2023/02/15 12:10:20;;;;;;;13.20;9.97;;;31.90;33.30;;;;;;5009581;28;20940;-66
2023/02/15 12:12:45;;;;;;;11.33;9.33;;;32.00;32.90;;;;;;5014881;28;20844;-66
2023/02/15 12:15:12;;;;;;;10.47;8.90;;;31.80;32.30;;;;;;5014670;28;20448;-66
2023/02/15 12:17:52;;;;;;;12.23;9.43;;;31.60;32.30;;;;;;5006547;28;20189;-66
2023/02/15 12:20:17;;;;;;;9.20;8.03;;;31.00;32.10;;;;;;4995026;28;20404;-66
2023/02/15 12:22:51;;;;;;;9.70;8.70;;;31.10;32.40;;;;;;4995079;28;20430;-66
2023/02/15 12:25:39;;;;;;;11.73;9.20;;;31.00;32.30;;;;;;4994613;28;20184;-66
2023/02/15 12:28:24;;;;;;;9.20;7.90;;;30.60;32.70;;;;;;4993677;28;20418;-66
2023/02/15 12:30:51;;;;;;;12.20;8.93;;;30.50;32.80;;;;;;4995001;28;20448;-67
2023/02/15 12:33:35;;;;;;;13.30;10.13;;;30.60;33.30;;;;;;4994949;28;20410;-66
2023/02/15 12:36:08;;;;;;;10.93;9.30;;;30.40;32.70;;;;;;4994192;28;20514;-66
2023/02/15 12:38:34;;;;;;;11.63;9.77;;;30.90;33.00;;;;;;4999035;28;20411;-66
2023/02/15 12:41:21;;;;;;;10.03;7.97;;;30.90;32.50;;;;;;5027183;28;20785;-66
2023/02/15 12:43:46;;;;;;;11.20;9.40;;;31.30;32.90;;;;;;5018157;28;20203;-66
2023/02/15 12:46:21;;;;;;;10.87;9.83;;;30.90;32.90;;;;;;5017866;28;20443;-66
2023/02/15 12:48:46;;;;;;;9.60;8.67;;;30.80;32.70;;;;;;5018132;28;20509;-66
2023/02/15 12:51:15;;;;;;;12.00;8.70;;;30.50;32.80;;;;;;5017772;28;20426;-66
2023/02/15 12:53:40;;;;;;;10.90;8.57;;;30.60;32.90;;;;;;5017650;28;20164;-66
2023/02/15 12:56:08;;;;;;;11.60;8.97;;;30.50;32.80;;;;;;5017113;28;20813;-66
2023/02/15 12:58:42;;;;;;;11.03;8.33;;;31.00;33.30;;;;;;5017672;28;20661;-66
2023/02/15 13:01:21;;;;;;;9.20;7.93;;;30.90;33.30;;;;;;5017642;28;20427;-66
2023/02/15 13:04:00;;;;;;;12.37;8.53;;;31.60;33.40;;;;;;5017947;28;20441;-66
2023/02/15 13:06:27;;;;;;;12.33;8.87;;;31.90;32.90;;;;;;5017341;28;20407;-66
2023/02/15 13:08:57;;;;;;;10.00;8.90;;;32.00;32.20;;;;;;5009000;28;20494;-66
2023/02/15 13:11:37;;;;;;;14.17;9.10;;;32.10;32.10;;;;;;4998284;28;20470;-66
2023/02/15 13:14:18;;;;;;;10.47;9.10;;;31.90;32.10;;;;;;4998421;28;20408;-66
2023/02/15 13:16:46;;;;;;;8.50;7.60;;;31.20;32.10;;;;;;4997941;28;20459;-66
2023/02/15 13:19:23;;;;;;;10.23;8.10;;;31.00;32.70;;;;;;4998050;28;20454;-66
2023/02/15 13:21:51;;;;;;;12.93;8.90;;;31.00;33.10;;;;;;4998011;28;20431;-66
2023/02/15 13:24:57;;;;;;;10.87;8.67;;;30.60;32.70;;;;;;4997590;28;20445;-66
2023/02/15 13:27:29;;;;;;;13.47;8.87;;;30.50;32.80;;;;;;4995140;28;20423;-66
2023/02/15 13:29:58;;;;;;;9.00;7.80;;;30.00;32.90;;;;;;4997607;28;20744;-66
2023/02/15 13:32:36;;;;;;;10.40;8.80;;;30.10;33.80;;;;;;4997523;28;20451;-66
2023/02/15 13:35:04;;;;;;;9.80;8.63;;;30.30;33.60;;;;;;4997896;28;20455;-66